Kinder Ranch 1 Mile

Age Group Results

April 02, 2016


Results By Race Management Systems, Inc.

1 Mile

Female 2 and Under

Place Name City Bib No Age Overall Time Back Chip Time Gun Time Chip Diff Pace
1 Arwen Arringdale 1421 2 103   15:51.00 16:44.00 0:53.00 18:51/M
 

Female 3 to 4

Place Name City Bib No Age Overall Time Back Chip Time Gun Time Chip Diff Pace
1 Jaxann Kammerer 878 4 68   9:58.00 10:37.00 0:40.00 11:51/M
2 Abigail Naylor 921 4 81 0:44.00 10:42.00 11:23.00 0:41.00 12:43/M
 

Female 5 to 6

Place Name City Bib No Age Overall Time Back Chip Time Gun Time Chip Diff Pace
1 Paige McCormick 1463 6 47   9:08.00 9:33.00 0:25.00 10:51/M
2 Kenzie Mechler 1344 6 48 0:04.00 9:11.00 9:45.00 0:34.00 10:55/M
3 Lyla Winkler 1270 6 55 0:15.00 9:23.00 9:48.00 0:26.00 11:09/M
4 Cate Journagan 1432 5 65 0:44.00 9:51.00 10:28.00 0:37.00 11:42/M
5 Alayna Parks San Antonio TX 1339 6 67 0:49.00 9:56.00 10:30.00 0:35.00 11:48/M
6 Auria Arringdale 1422 5 75 1:12.00 10:20.00 10:54.00 0:35.00 12:17/M
7 Madeline Weise 894 5 90 2:35.00 11:42.00 12:32.00 0:50.00 13:55/M
 

Female 7 to 8

Place Name City Bib No Age Overall Time Back Chip Time Gun Time Chip Diff Pace
1 Sydney Nickleberry 1446 8 14   7:26.00 8:01.00 0:35.00 8:50/M
2 Avery Kingdon 1239 7 21 0:28.00 7:54.00 8:29.00 0:36.00 9:23/M
3 Ella Winkler 1269 8 24 0:35.00 8:01.00 8:36.00 0:35.00 9:31/M
4 Jordan Kammerer 905 8 26 0:40.00 8:05.00 8:42.00 0:37.00 9:36/M
5 Aoife Journagan 1431 7 27 0:40.00 8:06.00 8:42.00 0:36.00 9:37/M
6 Jocelyn Seward 1352 7 29 0:44.00 8:10.00 8:45.00 0:35.00 9:42/M
7 Alivia Ledford 976 7 30 0:45.00 8:11.00 8:46.00 0:35.00 9:43/M
8 Jillian Vlasi 732 8 35 0:58.00 8:24.00 9:00.00 0:36.00 9:59/M
9 Vanessa Garcia 1229 7 38 1:06.00 8:32.00 9:06.00 0:35.00 10:08/M
10 Aubrey King 1297 8 43 1:31.00 8:57.00 9:35.00 0:39.00 10:38/M
11 Kat McCormick 1464 8 46 1:35.00 9:01.00 9:26.00 0:25.00 10:43/M
12 Madelyn Ivy 1252 7 53 1:53.00 9:19.00 10:05.00 0:46.00 11:04/M
13 Kennedi Diamond 937 8 57 2:00.00 9:26.00 10:01.00 0:36.00 11:13/M
14 Peyton Fry 1150 8 59 2:03.00 9:29.00 10:06.00 0:37.00 11:16/M
15 Viviana Rodriguez San Antonio TX 1286 8 60 2:08.00 9:33.00 10:08.00 0:35.00 11:21/M
16 Harper Bailey 1467 7 62 2:18.00 9:44.00 10:28.00 0:45.00 11:34/M
17 Maren Mock 1362 7 66 2:29.00 9:55.00 10:35.00 0:41.00 11:47/M
18 Isabel Weise 896 7 71 2:39.00 10:05.00 10:39.00 0:34.00 11:59/M
19 Alison Naylor 923 7 78 2:57.00 10:23.00 11:03.00 0:41.00 12:20/M
20 Dani Ruff 936 7 79 3:07.00 10:33.00 11:08.00 0:36.00 12:32/M
21 Grayson Bartek 956 7 80 3:10.00 10:35.00 11:03.00 0:28.00 12:35/M
22 Isabelle McCleary San Antonio TX 952 8 85 3:30.00 10:56.00 11:30.00 0:34.00 13:00/M
23 Alaura Arringdale 1420 8 87 3:32.00 10:58.00 11:30.00 0:32.00 13:02/M
 

Female 9 to 10

Place Name City Bib No Age Overall Time Back Chip Time Gun Time Chip Diff Pace
1 Isabella Ortiz 1461 10 9   6:53.00 7:28.00 0:36.00 8:10/M
2 Abygail Vlasi 731 10 11 0:09.00 7:02.00 7:37.00 0:35.00 8:21/M
3 Cadence Phillips 1282 9 15 0:52.00 7:44.00 8:19.00 0:35.00 9:11/M
4 Kayle Keppler 1358 10 25 1:13.00 8:05.00 8:39.00 0:35.00 9:36/M
5 Aileen Garcia 1230 10 32 1:26.00 8:18.00 8:56.00 0:39.00 9:52/M
6 Savannah Sanchez San Antonio TX 1455 10 33 1:28.00 8:20.00 8:44.00 0:24.00 9:54/M
7 Leanne Lemasters 1438 10 39 1:40.00 8:32.00 9:06.00 0:34.00 10:08/M
8 Madison Phillips 1281 9 42 2:03.00 8:55.00 9:34.00 0:40.00 10:36/M
9 Alexis Miller 108 9 44 2:05.00 8:57.00 9:36.00 0:40.00 10:38/M
10 Gabrielle Maxwell 1242 10 58 2:35.00 9:27.00 10:06.00 0:40.00 11:14/M
11 Morgan Miller 1443 10 84 3:59.00 10:51.00 11:30.00 0:39.00 12:54/M
 

Female 11 to 12

Place Name City Bib No Age Overall Time Back Chip Time Gun Time Chip Diff Pace
1 Katelyn White 927 12 97   12:29.00 13:10.00 0:42.00 14:50/M
 

Female 13 and Over

Place Name City Bib No Age Overall Time Back Chip Time Gun Time Chip Diff Pace
1 Maria Gonzalez San Antonio TX 1326 47 16   7:46.00 8:23.00 0:38.00 9:14/M
2 Tiffany Harris San Antonio TX 1313 39 22 0:11.00 7:57.00 8:35.00 0:39.00 9:27/M
3 Mckelvie Maxwell 1241 14 34 0:35.00 8:21.00 9:00.00 0:40.00 9:55/M
4 Cathy Perez San Antonio TX 1308 43 41 1:08.00 8:54.00 9:31.00 0:38.00 10:35/M
5 Tana Phillips 1283 42 45 1:15.00 9:00.00 9:43.00 0:43.00 10:42/M
6 Shea Kammerer San Antonio TX 900 35 69 2:12.00 9:58.00 10:37.00 0:39.00 11:51/M
7 Steffany Mock 1363 40 76 2:35.00 10:20.00 11:02.00 0:42.00 12:17/M
8 Marla Naylor San Antonio TX 920 37 82 2:57.00 10:43.00 11:24.00 0:41.00 12:44/M
9 Glynis Miller San Antonio TX 1440 44 86 3:11.00 10:57.00 11:37.00 0:41.00 13:01/M
10 Dora Cortes San Antonio TX 992 50 89 3:42.00 11:28.00 11:54.00 0:27.00 13:38/M
11 Annamarie Weise San Antonio TX 893 38 91 3:57.00 11:43.00 12:32.00 0:50.00 13:56/M
12 Alma Joers 1291 30 92 4:00.00 11:46.00 12:22.00 0:36.00 13:59/M
13 Amy Webb 1324 62 98 4:45.00 12:31.00 13:08.00 0:38.00 14:53/M
14 Katherine Collinsworth San Antonio TX 84 34 99 4:48.00 12:34.00 13:18.00 0:44.00 14:56/M
15 Katherine Lemasters 1437 36 101 7:09.00 14:55.00 15:38.00 0:43.00 17:44/M
 

Male 3 to 4

Place Name City Bib No Age Overall Time Back Chip Time Gun Time Chip Diff Pace
1 Charlie Ivy 1253 3 94   12:20.00 13:06.00 0:46.00 14:40/M
2 Luke Lemasters 1439 4 100 2:15.00 14:34.00 15:18.00 0:44.00 17:19/M
 

Male 5 to 6

Place Name City Bib No Age Overall Time Back Chip Time Gun Time Chip Diff Pace
1 Mason Ledford 975 5 17   7:47.00 8:22.00 0:35.00 9:15/M
2 Parker Fry 1157 6 23 0:11.00 7:58.00 8:36.00 0:38.00 9:28/M
3 Ryder McGinnis 1178 6 31 0:28.00 8:14.00 8:48.00 0:34.00 9:47/M
4 Mario Rodriguez San Antonio TX 1285 5 36 0:42.00 8:29.00 9:06.00 0:37.00 10:05/M
5 Aldo Aguilar 1473 6 37 0:44.00 8:31.00 8:31.00 10:07/M
6 Corey Sample 1330 5 40 0:46.00 8:33.00 9:23.00 0:50.00 10:10/M
7 Grady Dorman 1320 6 51 1:28.00 9:15.00 9:50.00 0:35.00 11:00/M
8 Ronan Journagan 1436 5 64 2:04.00 9:51.00 10:27.00 0:37.00 11:42/M
9 Chase Kraemer San Antonio TX 1459 5 73 2:30.00 10:17.00 10:53.00 0:36.00 12:13/M
10 Elroy Tre Miller III 492 6 77 2:35.00 10:21.00 11:00.00 0:39.00 12:18/M
11 Mason Miller 1442 6 88 3:12.00 10:58.00 11:39.00 0:41.00 13:02/M
12 Dylan Webb 1322 6 93 4:17.00 12:03.00 12:41.00 0:38.00 14:20/M
 

Male 7 to 8

Place Name City Bib No Age Overall Time Back Chip Time Gun Time Chip Diff Pace
1 Brady Harris 1316 7 4   6:07.00 6:42.00 0:36.00 7:16/M
2 Luhan Resendiz 1451 7 6 0:21.00 6:27.00 7:10.00 0:43.00 7:40/M
3 Landon Villareal 1250 7 10 0:51.00 6:57.00 6:57.00 8:15/M
4 Alex Kingdon 1237 8 13 1:00.00 7:06.00 7:41.00 0:35.00 8:26/M
5 Joaquin Gonzalez San Antonio TX 1325 7 19 1:41.00 7:47.00 8:24.00 0:37.00 9:15/M
6 Rylan Villarreal Spring Branch TX 1453 7 49 3:07.00 9:13.00 9:47.00 0:35.00 10:57/M
7 John Snuffer San Antonio TX 1317 8 70 3:55.00 10:01.00 10:41.00 0:40.00 11:54/M
8 Lukas Kraemer San Antonio TX 1460 7 72 4:07.00 10:13.00 10:49.00 0:36.00 12:09/M
9 Marshall White 926 8 96 6:22.00 12:29.00 13:10.00 0:41.00 14:50/M
 

Male 9 to 10

Place Name City Bib No Age Overall Time Back Chip Time Gun Time Chip Diff Pace
1 Matthew Perez 1311 9 2   6:01.00 6:35.00 0:35.00 7:09/M
2 Jaden Montgomery San Antonio TX 1444 9 5 0:08.00 6:09.00 6:34.00 0:26.00 7:18/M
3 Tyler McGinnis 1170 10 7 0:41.00 6:41.00 7:15.00 0:34.00 7:56/M
4 Collin Christiansen San Antonio TX 1312 9 8 0:42.00 6:43.00 7:15.00 0:33.00 7:59/M
5 Andrew Kingdon 1236 10 12 1:03.00 7:04.00 7:39.00 0:36.00 8:24/M
6 Konner Schneider 1278 9 20 1:52.00 7:53.00 8:28.00 0:36.00 9:22/M
7 Leonardo D. Giron San Antonio TX 999 10 28 2:09.00 8:10.00 8:10.00 9:42/M
 

Male 11 to 12

Place Name City Bib No Age Overall Time Back Chip Time Gun Time Chip Diff Pace
1 Mason Mock 1361 11 3   6:03.00 6:39.00 0:37.00 7:11/M
2 Trevor Vance 1471 12 18 1:45.00 7:47.00 8:22.00 0:35.00 9:15/M
3 Aaron Vance 1470 12 54 3:20.00 9:23.00 9:59.00 0:37.00 11:09/M
 

Male 13 and Over

Place Name City Bib No Age Overall Time Back Chip Time Gun Time Chip Diff Pace
1 Jacob Perez 1310 13 1   6:00.00 6:34.00 0:35.00 7:07/M
2 Leonardo J. Giron San Antonio TX 1000 47 50 3:15.00 9:14.00 9:53.00 0:39.00 10:58/M
3 Erick Perez 1309 39 52 3:17.00 9:16.00 9:53.00 0:38.00 11:01/M
4 Jason Vance 1472 99 56 3:24.00 9:23.00 10:00.00 0:38.00 11:09/M
5 Ty Nickleberry 1447 42 61 3:43.00 9:42.00 10:22.00 0:40.00 11:32/M
6 Greg Bailey 1468 42 63 3:49.00 9:49.00 10:33.00 0:45.00 11:40/M
7 Scott Mock San Antonio TX 1360 41 74 4:20.00 10:20.00 11:02.00 0:43.00 12:17/M
8 Jason Miller 1441 41 83 4:50.00 10:49.00 11:28.00 0:39.00 12:51/M
9 Clint Ivy 1254 34 95 6:22.00 12:21.00 13:08.00 0:47.00 14:41/M
10 Steven White 925 43 102 9:42.00 15:41.00 16:25.00 0:45.00 18:39/M